sensor_id;sensor_type;location;lat;lon;timestamp;P1;durP1;ratioP1;P2;durP2;ratioP2
51122;SDS011;37162;41.724;13.346;2022-11-12T06:43:22;15.52;;;4.95;;
51122;SDS011;37162;41.724;13.346;2022-11-12T06:45:48;8.00;;;5.30;;
51122;SDS011;37162;41.724;13.346;2022-11-12T06:48:13;8.70;;;4.90;;
51122;SDS011;37162;41.724;13.346;2022-11-12T06:50:39;8.23;;;4.40;;
51122;SDS011;37162;41.724;13.346;2022-11-12T06:53:04;6.60;;;4.10;;
51122;SDS011;37162;41.724;13.346;2022-11-12T06:55:30;6.35;;;4.28;;
51122;SDS011;37162;41.724;13.346;2022-11-12T06:57:55;8.70;;;4.93;;
51122;SDS011;37162;41.724;13.346;2022-11-12T07:00:21;7.85;;;4.45;;
51122;SDS011;37162;41.724;13.346;2022-11-12T07:02:47;5.78;;;4.15;;
51122;SDS011;37162;41.724;13.346;2022-11-12T07:05:12;7.15;;;4.78;;
51122;SDS011;37162;41.724;13.346;2022-11-12T07:07:38;6.80;;;4.53;;
51122;SDS011;37162;41.724;13.346;2022-11-12T07:10:04;5.95;;;4.40;;
51122;SDS011;37162;41.724;13.346;2022-11-12T07:12:29;7.57;;;5.15;;
51122;SDS011;37162;41.724;13.346;2022-11-12T07:14:55;6.82;;;4.68;;
51122;SDS011;37162;41.724;13.346;2022-11-12T07:17:20;6.25;;;4.38;;
51122;SDS011;37162;41.724;13.346;2022-11-12T07:19:46;6.55;;;4.28;;
51122;SDS011;37162;41.724;13.346;2022-11-12T07:22:11;7.88;;;4.25;;
51122;SDS011;37162;41.724;13.346;2022-11-12T07:24:36;9.13;;;4.20;;
51122;SDS011;37162;41.724;13.346;2022-11-12T07:27:02;5.80;;;4.30;;
51122;SDS011;37162;41.724;13.346;2022-11-12T07:29:27;7.03;;;3.80;;
51122;SDS011;37162;41.724;13.346;2022-11-12T07:31:53;5.47;;;4.10;;
51122;SDS011;37162;41.724;13.346;2022-11-12T07:34:18;6.15;;;4.13;;
51122;SDS011;37162;41.724;13.346;2022-11-12T07:36:43;6.78;;;4.07;;
51122;SDS011;37162;41.724;13.346;2022-11-12T07:39:09;6.82;;;3.83;;
51122;SDS011;37162;41.724;13.346;2022-11-12T07:41:34;6.22;;;4.18;;
51122;SDS011;37162;41.724;13.346;2022-11-12T07:44:00;6.75;;;4.28;;
51122;SDS011;37162;41.724;13.346;2022-11-12T07:46:26;5.88;;;3.90;;
51122;SDS011;37162;41.724;13.346;2022-11-12T07:48:52;6.90;;;4.35;;
51122;SDS011;37162;41.724;13.346;2022-11-12T07:53:45;4.88;;;3.22;;
51122;SDS011;37162;41.724;13.346;2022-11-12T07:56:12;3.60;;;2.95;;
51122;SDS011;37162;41.724;13.346;2022-11-12T07:58:39;5.68;;;4.03;;
51122;SDS011;37162;41.724;13.346;2022-11-12T08:01:09;11.32;;;4.93;;
51122;SDS011;37162;41.724;13.346;2022-11-12T08:03:36;6.40;;;4.55;;
51122;SDS011;37162;41.724;13.346;2022-11-12T08:06:02;8.73;;;4.60;;
51122;SDS011;37162;41.724;13.346;2022-11-12T08:08:27;9.05;;;4.57;;
51122;SDS011;37162;41.724;13.346;2022-11-12T08:10:54;5.03;;;3.63;;
51122;SDS011;37162;41.724;13.346;2022-11-12T08:13:23;6.95;;;4.20;;
51122;SDS011;37162;41.724;13.346;2022-11-12T08:15:49;5.78;;;3.75;;
51122;SDS011;37162;41.724;13.346;2022-11-12T08:18:15;7.40;;;4.03;;
51122;SDS011;37162;41.724;13.346;2022-11-12T08:20:41;4.60;;;3.85;;
51122;SDS011;37162;41.724;13.346;2022-11-12T08:23:06;7.40;;;4.32;;
51122;SDS011;37162;41.724;13.346;2022-11-12T08:25:32;5.68;;;3.80;;
51122;SDS011;37162;41.724;13.346;2022-11-12T08:27:58;5.75;;;4.45;;
51122;SDS011;37162;41.724;13.346;2022-11-12T08:30:27;5.75;;;3.60;;
51122;SDS011;37162;41.724;13.346;2022-11-12T08:35:21;6.93;;;3.90;;
51122;SDS011;37162;41.724;13.346;2022-11-12T08:37:47;5.13;;;3.78;;
51122;SDS011;37162;41.724;13.346;2022-11-12T08:40:12;5.10;;;3.60;;
51122;SDS011;37162;41.724;13.346;2022-11-12T08:42:38;6.50;;;3.78;;
51122;SDS011;37162;41.724;13.346;2022-11-12T08:45:03;6.25;;;3.53;;
51122;SDS011;37162;41.724;13.346;2022-11-12T08:47:29;4.03;;;3.20;;
51122;SDS011;37162;41.724;13.346;2022-11-12T08:49:55;8.63;;;4.05;;
51122;SDS011;37162;41.724;13.346;2022-11-12T08:52:20;5.53;;;3.53;;
51122;SDS011;37162;41.724;13.346;2022-11-12T08:54:45;7.00;;;3.92;;
51122;SDS011;37162;41.724;13.346;2022-11-12T08:57:11;7.63;;;4.55;;
51122;SDS011;37162;41.724;13.346;2022-11-12T08:59:36;6.70;;;4.07;;
51122;SDS011;37162;41.724;13.346;2022-11-12T09:02:02;7.38;;;3.38;;
51122;SDS011;37162;41.724;13.346;2022-11-12T09:04:27;4.35;;;3.13;;
51122;SDS011;37162;41.724;13.346;2022-11-12T09:06:53;7.13;;;3.75;;
51122;SDS011;37162;41.724;13.346;2022-11-12T09:09:18;7.13;;;4.20;;
51122;SDS011;37162;41.724;13.346;2022-11-12T09:11:44;5.35;;;3.70;;
51122;SDS011;37162;41.724;13.346;2022-11-12T09:14:09;4.93;;;3.75;;
51122;SDS011;37162;41.724;13.346;2022-11-12T09:16:34;6.30;;;3.80;;
51122;SDS011;37162;41.724;13.346;2022-11-12T09:19:00;3.75;;;3.25;;
51122;SDS011;37162;41.724;13.346;2022-11-12T09:21:25;4.75;;;2.75;;
51122;SDS011;37162;41.724;13.346;2022-11-12T09:23:51;4.85;;;3.35;;
51122;SDS011;37162;41.724;13.346;2022-11-12T09:26:16;5.43;;;3.30;;
51122;SDS011;37162;41.724;13.346;2022-11-12T09:28:42;5.03;;;3.35;;
51122;SDS011;37162;41.724;13.346;2022-11-12T09:31:07;4.13;;;2.92;;
51122;SDS011;37162;41.724;13.346;2022-11-12T09:33:33;6.07;;;3.00;;
51122;SDS011;37162;41.724;13.346;2022-11-12T09:35:59;4.35;;;3.35;;
51122;SDS011;37162;41.724;13.346;2022-11-12T09:38:25;4.95;;;3.42;;
51122;SDS011;37162;41.724;13.346;2022-11-12T09:43:21;4.47;;;3.40;;
51122;SDS011;37162;41.724;13.346;2022-11-12T09:45:52;3.97;;;2.97;;
51122;SDS011;37162;41.724;13.346;2022-11-12T09:48:28;5.03;;;3.08;;
51122;SDS011;37162;41.724;13.346;2022-11-12T09:51:04;4.00;;;3.20;;
51122;SDS011;37162;41.724;13.346;2022-11-12T09:53:38;3.95;;;2.90;;
51122;SDS011;37162;41.724;13.346;2022-11-12T09:56:11;5.20;;;3.60;;
51122;SDS011;37162;41.724;13.346;2022-11-12T09:58:38;4.55;;;3.15;;
51122;SDS011;37162;41.724;13.346;2022-11-12T10:01:11;4.45;;;3.60;;
51122;SDS011;37162;41.724;13.346;2022-11-12T10:06:18;4.53;;;2.80;;
51122;SDS011;37162;41.724;13.346;2022-11-12T10:08:57;5.60;;;3.70;;
51122;SDS011;37162;41.724;13.346;2022-11-12T10:20:12;6.40;;;3.40;;
51122;SDS011;37162;41.724;13.346;2022-11-12T10:25:18;8.23;;;3.28;;
51122;SDS011;37162;41.724;13.346;2022-11-12T10:27:44;27.05;;;4.78;;
51122;SDS011;37162;41.724;13.346;2022-11-12T10:30:17;29.25;;;5.78;;
51122;SDS011;37162;41.724;13.346;2022-11-12T10:32:45;44.42;;;5.50;;
51122;SDS011;37162;41.724;13.346;2022-11-12T10:35:13;50.75;;;5.60;;
51122;SDS011;37162;41.724;13.346;2022-11-12T10:37:44;39.83;;;8.38;;
51122;SDS011;37162;41.724;13.346;2022-11-12T10:40:25;43.08;;;8.82;;
51122;SDS011;37162;41.724;13.346;2022-11-12T10:43:00;40.13;;;7.97;;
51122;SDS011;37162;41.724;13.346;2022-11-12T10:45:28;30.55;;;7.60;;
51122;SDS011;37162;41.724;13.346;2022-11-12T10:47:55;35.25;;;7.68;;
51122;SDS011;37162;41.724;13.346;2022-11-12T10:50:38;28.58;;;7.40;;
51122;SDS011;37162;41.724;13.346;2022-11-12T10:53:06;29.20;;;7.15;;
51122;SDS011;37162;41.724;13.346;2022-11-12T10:55:36;20.83;;;6.97;;
51122;SDS011;37162;41.724;13.346;2022-11-12T10:58:18;24.02;;;7.75;;
51122;SDS011;37162;41.724;13.346;2022-11-12T11:08:43;21.58;;;7.80;;
51122;SDS011;37162;41.724;13.346;2022-11-12T11:13:49;17.25;;;6.53;;
51122;SDS011;37162;41.724;13.346;2022-11-12T11:16:17;14.98;;;7.50;;
51122;SDS011;37162;41.724;13.346;2022-11-12T11:19:11;19.23;;;7.00;;
51122;SDS011;37162;41.724;13.346;2022-11-12T11:37:29;13.52;;;7.13;;
51122;SDS011;37162;41.724;13.346;2022-11-12T11:48:12;15.52;;;8.23;;
51122;SDS011;37162;41.724;13.346;2022-11-12T11:50:56;13.77;;;8.32;;
51122;SDS011;37162;41.724;13.346;2022-11-12T11:53:33;16.73;;;9.32;;
51122;SDS011;37162;41.724;13.346;2022-11-12T11:56:27;14.10;;;9.35;;
51122;SDS011;37162;41.724;13.346;2022-11-12T12:07:55;22.65;;;12.80;;
51122;SDS011;37162;41.724;13.346;2022-11-12T12:16:24;21.20;;;12.82;;
51122;SDS011;37162;41.724;13.346;2022-11-12T12:21:49;17.85;;;10.98;;
51122;SDS011;37162;41.724;13.346;2022-11-12T12:31:46;15.82;;;11.05;;
51122;SDS011;37162;41.724;13.346;2022-11-12T12:36:45;14.70;;;10.07;;
51122;SDS011;37162;41.724;13.346;2022-11-12T12:39:18;16.02;;;10.50;;
51122;SDS011;37162;41.724;13.346;2022-11-12T12:42:24;18.63;;;11.38;;
51122;SDS011;37162;41.724;13.346;2022-11-12T12:44:54;17.13;;;11.40;;
51122;SDS011;37162;41.724;13.346;2022-11-12T12:47:37;16.45;;;10.20;;
51122;SDS011;37162;41.724;13.346;2022-11-12T12:50:10;16.08;;;10.13;;
51122;SDS011;37162;41.724;13.346;2022-11-12T12:55:36;14.02;;;8.80;;
51122;SDS011;37162;41.724;13.346;2022-11-12T12:58:01;13.45;;;9.20;;
51122;SDS011;37162;41.724;13.346;2022-11-12T13:00:35;14.30;;;9.52;;
51122;SDS011;37162;41.724;13.346;2022-11-12T13:03:04;15.32;;;9.50;;
51122;SDS011;37162;41.724;13.346;2022-11-12T13:05:30;14.90;;;8.85;;
51122;SDS011;37162;41.724;13.346;2022-11-12T13:08:00;15.32;;;8.43;;
51122;SDS011;37162;41.724;13.346;2022-11-12T13:10:33;12.55;;;8.80;;
51122;SDS011;37162;41.724;13.346;2022-11-12T13:15:46;13.00;;;9.30;;
51122;SDS011;37162;41.724;13.346;2022-11-12T13:26:36;15.75;;;9.57;;
51122;SDS011;37162;41.724;13.346;2022-11-12T13:29:17;12.88;;;8.10;;
51122;SDS011;37162;41.724;13.346;2022-11-12T13:31:49;15.65;;;9.38;;
51122;SDS011;37162;41.724;13.346;2022-11-12T13:34:34;15.10;;;10.07;;
51122;SDS011;37162;41.724;13.346;2022-11-12T13:37:04;12.60;;;8.93;;
51122;SDS011;37162;41.724;13.346;2022-11-12T13:39:36;13.68;;;9.73;;
51122;SDS011;37162;41.724;13.346;2022-11-12T13:42:08;13.23;;;9.77;;
51122;SDS011;37162;41.724;13.346;2022-11-12T13:44:57;13.13;;;9.43;;
51122;SDS011;37162;41.724;13.346;2022-11-12T13:47:24;16.27;;;10.63;;
51122;SDS011;37162;41.724;13.346;2022-11-12T13:49:53;15.05;;;10.50;;
51122;SDS011;37162;41.724;13.346;2022-11-12T13:52:24;16.80;;;10.45;;
51122;SDS011;37162;41.724;13.346;2022-11-12T13:55:00;15.50;;;10.13;;
51122;SDS011;37162;41.724;13.346;2022-11-12T13:57:31;16.77;;;10.43;;
51122;SDS011;37162;41.724;13.346;2022-11-12T14:02:41;17.38;;;10.73;;
51122;SDS011;37162;41.724;13.346;2022-11-12T14:05:13;13.38;;;9.70;;
51122;SDS011;37162;41.724;13.346;2022-11-12T14:21:21;15.15;;;10.00;;
51122;SDS011;37162;41.724;13.346;2022-11-12T14:23:46;15.85;;;10.43;;
51122;SDS011;37162;41.724;13.346;2022-11-12T14:26:14;14.63;;;10.52;;
51122;SDS011;37162;41.724;13.346;2022-11-12T14:29:05;17.38;;;12.05;;
51122;SDS011;37162;41.724;13.346;2022-11-12T14:31:31;17.17;;;12.05;;
51122;SDS011;37162;41.724;13.346;2022-11-12T14:36:56;19.42;;;11.18;;
51122;SDS011;37162;41.724;13.346;2022-11-12T14:39:22;17.58;;;11.68;;
51122;SDS011;37162;41.724;13.346;2022-11-12T14:41:49;16.80;;;11.60;;
51122;SDS011;37162;41.724;13.346;2022-11-12T14:44:20;19.20;;;12.73;;
51122;SDS011;37162;41.724;13.346;2022-11-12T14:49:20;18.95;;;11.63;;
51122;SDS011;37162;41.724;13.346;2022-11-12T14:51:49;18.43;;;11.30;;
51122;SDS011;37162;41.724;13.346;2022-11-12T14:54:29;14.60;;;10.13;;
51122;SDS011;37162;41.724;13.346;2022-11-12T14:56:59;19.42;;;11.60;;
51122;SDS011;37162;41.724;13.346;2022-11-12T14:59:27;15.50;;;11.20;;
51122;SDS011;37162;41.724;13.346;2022-11-12T15:04:40;17.13;;;10.75;;
51122;SDS011;37162;41.724;13.346;2022-11-12T15:07:28;16.48;;;10.30;;
51122;SDS011;37162;41.724;13.346;2022-11-12T15:09:58;14.85;;;9.43;;
51122;SDS011;37162;41.724;13.346;2022-11-12T15:12:24;13.48;;;9.85;;
51122;SDS011;37162;41.724;13.346;2022-11-12T15:15:08;15.52;;;10.45;;
51122;SDS011;37162;41.724;13.346;2022-11-12T15:17:41;13.52;;;9.30;;
51122;SDS011;37162;41.724;13.346;2022-11-12T15:20:16;17.20;;;9.52;;
51122;SDS011;37162;41.724;13.346;2022-11-12T15:22:52;14.60;;;9.85;;
51122;SDS011;37162;41.724;13.346;2022-11-12T15:25:28;15.07;;;9.85;;
51122;SDS011;37162;41.724;13.346;2022-11-12T15:27:55;14.68;;;10.73;;
51122;SDS011;37162;41.724;13.346;2022-11-12T15:30:35;18.38;;;11.48;;
51122;SDS011;37162;41.724;13.346;2022-11-12T15:33:12;20.30;;;12.43;;
51122;SDS011;37162;41.724;13.346;2022-11-12T15:35:45;17.60;;;12.75;;
51122;SDS011;37162;41.724;13.346;2022-11-12T15:41:02;15.15;;;10.80;;
51122;SDS011;37162;41.724;13.346;2022-11-12T15:43:29;13.95;;;10.25;;
51122;SDS011;37162;41.724;13.346;2022-11-12T15:45:59;14.15;;;9.73;;
51122;SDS011;37162;41.724;13.346;2022-11-12T15:48:25;13.00;;;9.32;;
51122;SDS011;37162;41.724;13.346;2022-11-12T15:50:51;12.80;;;8.45;;
51122;SDS011;37162;41.724;13.346;2022-11-12T15:53:16;14.15;;;9.35;;
51122;SDS011;37162;41.724;13.346;2022-11-12T15:55:42;12.98;;;8.73;;
51122;SDS011;37162;41.724;13.346;2022-11-12T15:58:16;14.77;;;10.02;;
51122;SDS011;37162;41.724;13.346;2022-11-12T16:00:44;11.40;;;7.60;;
51122;SDS011;37162;41.724;13.346;2022-11-12T16:03:12;13.15;;;8.35;;
51122;SDS011;37162;41.724;13.346;2022-11-12T16:05:38;11.93;;;8.43;;
51122;SDS011;37162;41.724;13.346;2022-11-12T16:08:03;11.00;;;7.53;;
51122;SDS011;37162;41.724;13.346;2022-11-12T16:10:29;9.90;;;7.25;;
51122;SDS011;37162;41.724;13.346;2022-11-12T16:12:55;12.77;;;7.82;;
51122;SDS011;37162;41.724;13.346;2022-11-12T16:15:23;12.38;;;7.82;;
51122;SDS011;37162;41.724;13.346;2022-11-12T16:17:50;12.35;;;7.35;;
51122;SDS011;37162;41.724;13.346;2022-11-12T16:20:17;10.38;;;7.60;;
51122;SDS011;37162;41.724;13.346;2022-11-12T16:22:45;10.90;;;8.07;;
51122;SDS011;37162;41.724;13.346;2022-11-12T16:25:11;9.85;;;6.80;;
51122;SDS011;37162;41.724;13.346;2022-11-12T16:27:37;12.02;;;7.03;;
51122;SDS011;37162;41.724;13.346;2022-11-12T16:30:03;11.82;;;7.07;;
51122;SDS011;37162;41.724;13.346;2022-11-12T16:32:29;11.35;;;7.30;;
51122;SDS011;37162;41.724;13.346;2022-11-12T16:34:54;9.52;;;6.95;;
51122;SDS011;37162;41.724;13.346;2022-11-12T16:37:20;10.05;;;6.40;;
51122;SDS011;37162;41.724;13.346;2022-11-12T16:39:46;10.38;;;7.13;;
51122;SDS011;37162;41.724;13.346;2022-11-12T16:42:11;9.82;;;6.72;;
51122;SDS011;37162;41.724;13.346;2022-11-12T16:44:36;10.60;;;7.15;;
51122;SDS011;37162;41.724;13.346;2022-11-12T16:47:02;8.75;;;6.38;;
51122;SDS011;37162;41.724;13.346;2022-11-12T16:49:28;10.50;;;7.22;;
51122;SDS011;37162;41.724;13.346;2022-11-12T16:51:54;9.75;;;6.85;;
51122;SDS011;37162;41.724;13.346;2022-11-12T16:54:22;9.05;;;6.43;;
51122;SDS011;37162;41.724;13.346;2022-11-12T16:56:47;8.55;;;6.28;;
51122;SDS011;37162;41.724;13.346;2022-11-12T16:59:13;12.60;;;7.22;;
51122;SDS011;37162;41.724;13.346;2022-11-12T17:01:39;9.80;;;6.43;;
51122;SDS011;37162;41.724;13.346;2022-11-12T17:04:04;9.90;;;7.15;;
51122;SDS011;37162;41.724;13.346;2022-11-12T17:06:31;11.20;;;7.20;;
51122;SDS011;37162;41.724;13.346;2022-11-12T17:09:01;10.13;;;6.03;;
51122;SDS011;37162;41.724;13.346;2022-11-12T17:11:28;11.10;;;6.65;;
51122;SDS011;37162;41.724;13.346;2022-11-12T17:13:53;9.13;;;6.80;;
51122;SDS011;37162;41.724;13.346;2022-11-12T17:16:18;9.82;;;6.70;;
51122;SDS011;37162;41.724;13.346;2022-11-12T17:18:44;13.25;;;7.45;;
51122;SDS011;37162;41.724;13.346;2022-11-12T17:21:11;11.43;;;7.43;;
51122;SDS011;37162;41.724;13.346;2022-11-12T17:23:37;11.82;;;7.65;;
51122;SDS011;37162;41.724;13.346;2022-11-12T17:26:04;11.43;;;8.18;;
51122;SDS011;37162;41.724;13.346;2022-11-12T17:28:31;13.10;;;7.18;;
51122;SDS011;37162;41.724;13.346;2022-11-12T17:31:10;12.50;;;7.25;;
51122;SDS011;37162;41.724;13.346;2022-11-12T17:33:41;10.85;;;6.72;;
51122;SDS011;37162;41.724;13.346;2022-11-12T17:36:12;10.65;;;7.45;;
51122;SDS011;37162;41.724;13.346;2022-11-12T17:38:39;10.18;;;7.07;;
51122;SDS011;37162;41.724;13.346;2022-11-12T17:41:06;8.52;;;6.32;;
51122;SDS011;37162;41.724;13.346;2022-11-12T17:43:32;9.98;;;6.93;;
51122;SDS011;37162;41.724;13.346;2022-11-12T17:45:58;10.50;;;6.68;;
51122;SDS011;37162;41.724;13.346;2022-11-12T17:48:24;10.27;;;6.82;;
51122;SDS011;37162;41.724;13.346;2022-11-12T17:50:50;8.88;;;6.38;;
51122;SDS011;37162;41.724;13.346;2022-11-12T17:53:17;9.13;;;6.88;;
51122;SDS011;37162;41.724;13.346;2022-11-12T17:55:43;9.00;;;6.55;;
51122;SDS011;37162;41.724;13.346;2022-11-12T17:58:09;9.20;;;6.43;;
51122;SDS011;37162;41.724;13.346;2022-11-12T18:00:35;9.57;;;6.47;;
51122;SDS011;37162;41.724;13.346;2022-11-12T18:03:02;8.45;;;6.00;;
51122;SDS011;37162;41.724;13.346;2022-11-12T18:05:28;8.75;;;5.85;;
51122;SDS011;37162;41.724;13.346;2022-11-12T18:07:53;9.18;;;5.72;;
51122;SDS011;37162;41.724;13.346;2022-11-12T18:10:18;7.88;;;5.53;;
51122;SDS011;37162;41.724;13.346;2022-11-12T18:12:44;14.68;;;5.78;;
51122;SDS011;37162;41.724;13.346;2022-11-12T18:15:10;17.58;;;5.97;;
51122;SDS011;37162;41.724;13.346;2022-11-12T18:17:37;8.60;;;4.93;;
51122;SDS011;37162;41.724;13.346;2022-11-12T18:20:02;8.48;;;4.38;;
51122;SDS011;37162;41.724;13.346;2022-11-12T18:22:28;6.15;;;3.78;;
51122;SDS011;37162;41.724;13.346;2022-11-12T18:24:54;9.57;;;4.60;;
51122;SDS011;37162;41.724;13.346;2022-11-12T18:27:19;6.75;;;4.00;;
51122;SDS011;37162;41.724;13.346;2022-11-12T18:29:45;6.63;;;3.78;;
51122;SDS011;37162;41.724;13.346;2022-11-12T18:32:11;5.60;;;3.42;;
51122;SDS011;37162;41.724;13.346;2022-11-12T18:34:36;5.45;;;3.22;;
51122;SDS011;37162;41.724;13.346;2022-11-12T18:37:12;3.90;;;2.63;;
51122;SDS011;37162;41.724;13.346;2022-11-12T18:39:38;4.47;;;3.00;;
51122;SDS011;37162;41.724;13.346;2022-11-12T18:42:04;4.70;;;2.78;;
51122;SDS011;37162;41.724;13.346;2022-11-12T18:44:29;3.95;;;2.97;;
51122;SDS011;37162;41.724;13.346;2022-11-12T18:46:55;8.93;;;3.30;;
51122;SDS011;37162;41.724;13.346;2022-11-12T18:49:20;8.00;;;3.13;;
51122;SDS011;37162;41.724;13.346;2022-11-12T18:51:46;4.75;;;2.97;;
51122;SDS011;37162;41.724;13.346;2022-11-12T18:54:12;4.80;;;2.55;;
51122;SDS011;37162;41.724;13.346;2022-11-12T18:56:40;4.20;;;2.58;;
51122;SDS011;37162;41.724;13.346;2022-11-12T18:59:06;5.70;;;2.72;;
51122;SDS011;37162;41.724;13.346;2022-11-12T19:01:32;3.08;;;2.00;;
51122;SDS011;37162;41.724;13.346;2022-11-12T19:03:58;3.05;;;2.30;;
51122;SDS011;37162;41.724;13.346;2022-11-12T19:06:23;5.25;;;2.50;;
51122;SDS011;37162;41.724;13.346;2022-11-12T19:08:49;4.75;;;2.28;;
51122;SDS011;37162;41.724;13.346;2022-11-12T19:11:16;2.35;;;2.00;;
51122;SDS011;37162;41.724;13.346;2022-11-12T19:13:48;4.05;;;2.42;;
51122;SDS011;37162;41.724;13.346;2022-11-12T19:16:15;4.65;;;2.95;;
51122;SDS011;37162;41.724;13.346;2022-11-12T19:18:43;5.75;;;3.55;;
51122;SDS011;37162;41.724;13.346;2022-11-12T19:21:10;4.85;;;3.40;;
51122;SDS011;37162;41.724;13.346;2022-11-12T19:23:37;5.40;;;3.10;;
51122;SDS011;37162;41.724;13.346;2022-11-12T19:26:03;5.93;;;4.05;;
51122;SDS011;37162;41.724;13.346;2022-11-12T19:28:30;7.95;;;4.65;;
51122;SDS011;37162;41.724;13.346;2022-11-12T19:30:56;6.15;;;4.20;;
51122;SDS011;37162;41.724;13.346;2022-11-12T19:33:21;6.68;;;5.05;;
51122;SDS011;37162;41.724;13.346;2022-11-12T19:35:47;8.77;;;6.05;;
51122;SDS011;37162;41.724;13.346;2022-11-12T19:38:13;9.50;;;7.60;;
51122;SDS011;37162;41.724;13.346;2022-11-12T19:40:39;10.20;;;6.65;;
51122;SDS011;37162;41.724;13.346;2022-11-12T19:43:05;10.75;;;7.70;;
51122;SDS011;37162;41.724;13.346;2022-11-12T19:45:31;12.32;;;8.40;;
51122;SDS011;37162;41.724;13.346;2022-11-12T19:47:56;12.50;;;9.05;;
51122;SDS011;37162;41.724;13.346;2022-11-12T19:50:22;15.48;;;9.45;;
51122;SDS011;37162;41.724;13.346;2022-11-12T19:52:47;13.00;;;9.15;;
51122;SDS011;37162;41.724;13.346;2022-11-12T19:55:12;14.35;;;9.38;;
51122;SDS011;37162;41.724;13.346;2022-11-12T19:57:38;12.88;;;9.07;;
51122;SDS011;37162;41.724;13.346;2022-11-12T20:00:03;12.52;;;8.77;;
51122;SDS011;37162;41.724;13.346;2022-11-12T20:02:29;15.60;;;11.13;;
51122;SDS011;37162;41.724;13.346;2022-11-12T20:04:55;13.32;;;9.60;;
51122;SDS011;37162;41.724;13.346;2022-11-12T20:07:20;13.98;;;9.60;;
51122;SDS011;37162;41.724;13.346;2022-11-12T20:09:46;13.52;;;9.57;;
51122;SDS011;37162;41.724;13.346;2022-11-12T20:12:11;14.00;;;9.40;;
51122;SDS011;37162;41.724;13.346;2022-11-12T20:14:37;17.23;;;9.52;;
51122;SDS011;37162;41.724;13.346;2022-11-12T20:17:02;13.70;;;9.50;;
51122;SDS011;37162;41.724;13.346;2022-11-12T20:19:29;12.82;;;8.27;;
51122;SDS011;37162;41.724;13.346;2022-11-12T20:21:54;12.63;;;8.57;;
51122;SDS011;37162;41.724;13.346;2022-11-12T20:24:20;11.48;;;7.75;;
51122;SDS011;37162;41.724;13.346;2022-11-12T20:26:45;11.80;;;7.93;;
51122;SDS011;37162;41.724;13.346;2022-11-12T20:29:11;14.52;;;9.00;;
51122;SDS011;37162;41.724;13.346;2022-11-12T20:31:36;11.02;;;8.43;;
51122;SDS011;37162;41.724;13.346;2022-11-12T20:34:02;14.88;;;9.40;;
51122;SDS011;37162;41.724;13.346;2022-11-12T20:36:27;13.55;;;8.88;;
51122;SDS011;37162;41.724;13.346;2022-11-12T20:38:52;11.98;;;8.38;;
51122;SDS011;37162;41.724;13.346;2022-11-12T20:41:19;11.35;;;7.68;;
51122;SDS011;37162;41.724;13.346;2022-11-12T20:43:46;11.40;;;7.22;;
51122;SDS011;37162;41.724;13.346;2022-11-12T20:46:12;11.30;;;7.22;;
51122;SDS011;37162;41.724;13.346;2022-11-12T20:48:38;9.13;;;6.90;;
51122;SDS011;37162;41.724;13.346;2022-11-12T20:51:12;11.45;;;7.57;;
51122;SDS011;37162;41.724;13.346;2022-11-12T20:53:40;10.70;;;6.38;;
51122;SDS011;37162;41.724;13.346;2022-11-12T20:58:32;10.82;;;7.22;;
51122;SDS011;37162;41.724;13.346;2022-11-12T21:00:57;8.02;;;5.55;;
51122;SDS011;37162;41.724;13.346;2022-11-12T21:03:23;8.20;;;5.38;;
51122;SDS011;37162;41.724;13.346;2022-11-12T21:05:55;7.07;;;5.07;;
51122;SDS011;37162;41.724;13.346;2022-11-12T21:08:21;10.13;;;5.50;;
51122;SDS011;37162;41.724;13.346;2022-11-12T21:10:47;8.48;;;5.53;;
51122;SDS011;37162;41.724;13.346;2022-11-12T21:13:13;7.75;;;5.22;;
51122;SDS011;37162;41.724;13.346;2022-11-12T21:15:43;8.95;;;5.10;;
51122;SDS011;37162;41.724;13.346;2022-11-12T21:18:09;7.90;;;5.50;;
51122;SDS011;37162;41.724;13.346;2022-11-12T21:20:34;9.23;;;5.72;;
51122;SDS011;37162;41.724;13.346;2022-11-12T21:23:00;6.22;;;4.80;;
51122;SDS011;37162;41.724;13.346;2022-11-12T21:25:25;7.28;;;5.03;;
51122;SDS011;37162;41.724;13.346;2022-11-12T21:27:50;8.57;;;4.55;;
51122;SDS011;37162;41.724;13.346;2022-11-12T21:30:16;7.72;;;4.82;;
51122;SDS011;37162;41.724;13.346;2022-11-12T21:32:41;7.30;;;4.63;;
51122;SDS011;37162;41.724;13.346;2022-11-12T21:35:07;7.28;;;4.50;;
51122;SDS011;37162;41.724;13.346;2022-11-12T21:37:32;7.35;;;4.22;;
51122;SDS011;37162;41.724;13.346;2022-11-12T21:39:58;5.60;;;3.90;;
51122;SDS011;37162;41.724;13.346;2022-11-12T21:42:23;4.70;;;3.80;;
51122;SDS011;37162;41.724;13.346;2022-11-12T21:44:48;5.22;;;3.92;;
51122;SDS011;37162;41.724;13.346;2022-11-12T21:47:14;6.95;;;4.28;;
51122;SDS011;37162;41.724;13.346;2022-11-12T21:49:39;6.32;;;4.22;;
51122;SDS011;37162;41.724;13.346;2022-11-12T21:52:05;6.63;;;4.28;;
51122;SDS011;37162;41.724;13.346;2022-11-12T21:54:30;5.82;;;4.35;;
51122;SDS011;37162;41.724;13.346;2022-11-12T21:56:56;5.13;;;3.38;;
51122;SDS011;37162;41.724;13.346;2022-11-12T21:59:21;5.35;;;3.63;;
51122;SDS011;37162;41.724;13.346;2022-11-12T22:01:46;5.85;;;4.13;;
51122;SDS011;37162;41.724;13.346;2022-11-12T22:04:12;4.22;;;3.40;;
51122;SDS011;37162;41.724;13.346;2022-11-12T22:06:37;6.47;;;3.80;;
51122;SDS011;37162;41.724;13.346;2022-11-12T22:09:03;6.20;;;4.63;;
51122;SDS011;37162;41.724;13.346;2022-11-12T22:11:29;3.45;;;3.03;;
51122;SDS011;37162;41.724;13.346;2022-11-12T22:13:55;5.78;;;3.55;;
51122;SDS011;37162;41.724;13.346;2022-11-12T22:16:21;6.40;;;4.28;;
51122;SDS011;37162;41.724;13.346;2022-11-12T22:18:49;4.72;;;3.42;;
51122;SDS011;37162;41.724;13.346;2022-11-12T22:21:21;6.05;;;3.85;;
51122;SDS011;37162;41.724;13.346;2022-11-12T22:23:48;4.68;;;3.30;;
51122;SDS011;37162;41.724;13.346;2022-11-12T22:26:20;6.70;;;3.97;;
51122;SDS011;37162;41.724;13.346;2022-11-12T22:28:49;6.15;;;3.63;;
51122;SDS011;37162;41.724;13.346;2022-11-12T22:31:19;7.80;;;3.88;;
51122;SDS011;37162;41.724;13.346;2022-11-12T22:33:47;6.63;;;3.78;;
51122;SDS011;37162;41.724;13.346;2022-11-12T22:36:14;6.75;;;3.92;;
51122;SDS011;37162;41.724;13.346;2022-11-12T22:38:42;5.82;;;4.30;;
51122;SDS011;37162;41.724;13.346;2022-11-12T22:41:10;6.32;;;3.85;;
51122;SDS011;37162;41.724;13.346;2022-11-12T22:43:38;5.70;;;3.60;;
51122;SDS011;37162;41.724;13.346;2022-11-12T22:46:14;5.18;;;3.45;;
51122;SDS011;37162;41.724;13.346;2022-11-12T22:48:41;4.97;;;3.60;;
51122;SDS011;37162;41.724;13.346;2022-11-12T22:51:09;6.00;;;3.83;;
51122;SDS011;37162;41.724;13.346;2022-11-12T22:53:38;5.60;;;3.55;;
51122;SDS011;37162;41.724;13.346;2022-11-12T22:56:04;4.75;;;3.38;;
51122;SDS011;37162;41.724;13.346;2022-11-12T22:58:34;4.90;;;3.80;;
51122;SDS011;37162;41.724;13.346;2022-11-12T23:01:01;5.18;;;4.10;;
51122;SDS011;37162;41.724;13.346;2022-11-12T23:03:29;5.55;;;4.28;;
51122;SDS011;37162;41.724;13.346;2022-11-12T23:05:56;7.57;;;4.30;;
51122;SDS011;37162;41.724;13.346;2022-11-12T23:08:22;7.57;;;4.22;;
51122;SDS011;37162;41.724;13.346;2022-11-12T23:10:48;6.90;;;4.50;;
51122;SDS011;37162;41.724;13.346;2022-11-12T23:13:14;5.75;;;4.57;;
51122;SDS011;37162;41.724;13.346;2022-11-12T23:15:42;6.32;;;4.75;;
51122;SDS011;37162;41.724;13.346;2022-11-12T23:18:08;7.22;;;4.85;;
51122;SDS011;37162;41.724;13.346;2022-11-12T23:20:34;6.00;;;4.40;;
51122;SDS011;37162;41.724;13.346;2022-11-12T23:22:59;8.32;;;4.15;;